Time;durP1;ratioP1;P1;durP2;ratioP2;P2;SDS_P1;SDS_P2;PMS_P1;PMS_P2;Temp;Humidity;BMP_temperature;BMP_pressure;BME280_temperature;BME280_humidity;BME280_pressure;Samples;Min_cycle;Max_cycle;Signal;HPM_P1;HPM_P2
2023/06/16 00:00:14;;;;;;;9.93;7.25;;;15.10;99.90;;;;;;5073150;28;20036;-61
2023/06/16 00:02:43;;;;;;;9.40;6.70;;;15.10;99.90;;;;;;5055993;28;20036;-61
2023/06/16 00:05:10;;;;;;;10.23;8.27;;;15.10;99.90;;;;;;5055781;28;20044;-61
2023/06/16 00:07:37;;;;;;;10.88;8.32;;;15.10;99.90;;;;;;5055403;28;20456;-61
2023/06/16 00:10:07;;;;;;;14.05;9.80;;;15.10;99.90;;;;;;5073621;28;20044;-61
2023/06/16 00:12:34;;;;;;;24.65;15.13;;;15.10;99.90;;;;;;5055477;28;20559;-61
2023/06/16 00:14:59;;;;;;;11.60;9.57;;;15.00;99.90;;;;;;5054820;28;20044;-61
2023/06/16 00:17:26;;;;;;;22.75;12.18;;;15.10;99.90;;;;;;5055836;28;20067;-61
2023/06/16 00:19:57;;;;;;;16.05;13.00;;;15.10;99.90;;;;;;5061148;28;20040;-61
2023/06/16 00:22:25;;;;;;;16.75;11.60;;;15.10;99.90;;;;;;5034997;28;20049;-61
2023/06/16 00:24:52;;;;;;;13.70;11.43;;;15.10;99.90;;;;;;5035789;28;20080;-60
2023/06/16 00:27:18;;;;;;;14.10;11.88;;;15.10;99.90;;;;;;5035760;28;20072;-61
2023/06/16 00:29:44;;;;;;;13.57;11.10;;;15.10;99.90;;;;;;5034621;28;20037;-61
2023/06/16 00:32:10;;;;;;;15.45;10.90;;;15.10;99.90;;;;;;5035896;28;20037;-61
2023/06/16 00:34:35;;;;;;;13.52;11.60;;;15.10;99.90;;;;;;5034652;28;20041;-61
2023/06/16 00:37:01;;;;;;;15.18;12.75;;;15.10;99.90;;;;;;5035323;28;20069;-60
2023/06/16 00:39:27;;;;;;;15.25;12.30;;;15.10;99.90;;;;;;5035324;28;20398;-61
2023/06/16 00:41:52;;;;;;;15.57;12.25;;;15.10;99.90;;;;;;5017915;28;20508;-61
2023/06/16 00:44:18;;;;;;;14.05;12.55;;;15.10;99.90;;;;;;5035476;28;20044;-60
2023/06/16 00:46:45;;;;;;;14.25;12.23;;;15.10;99.90;;;;;;5018821;28;20474;-61
2023/06/16 00:49:11;;;;;;;14.65;13.15;;;15.10;99.90;;;;;;5034416;28;20066;-61
2023/06/16 00:51:37;;;;;;;17.35;13.98;;;15.10;99.90;;;;;;5052978;28;20033;-61
2023/06/16 00:54:03;;;;;;;18.17;13.82;;;15.10;99.90;;;;;;5035005;28;20051;-61
2023/06/16 00:56:30;;;;;;;18.52;16.35;;;15.10;99.90;;;;;;5051894;28;20045;-61
2023/06/16 00:58:56;;;;;;;17.00;14.20;;;15.10;99.90;;;;;;5052806;28;20087;-61
2023/06/16 01:01:28;;;;;;;22.58;14.80;;;15.10;99.90;;;;;;5052753;28;20041;-61
2023/06/16 01:03:55;;;;;;;20.98;15.50;;;15.10;99.90;;;;;;5034255;28;20600;-61
2023/06/16 01:06:32;;;;;;;15.40;12.38;;;15.00;99.90;;;;;;5034839;28;20033;-60
2023/06/16 01:09:35;;;;;;;53.72;15.20;;;15.00;99.90;;;;;;5034218;28;20482;-60
2023/06/16 01:12:26;;;;;;;16.80;14.65;;;15.00;99.90;;;;;;5033948;28;20053;-60
2023/06/16 01:15:06;;;;;;;14.75;13.07;;;14.90;99.90;;;;;;5034556;28;20048;-60
2023/06/16 01:17:37;;;;;;;14.48;12.98;;;14.90;99.90;;;;;;5051203;28;20044;-60
2023/06/16 01:20:32;;;;;;;18.92;15.73;;;14.90;99.90;;;;;;5034574;28;20596;-60
2023/06/16 01:23:15;;;;;;;16.35;13.93;;;14.80;99.90;;;;;;5044982;28;20056;-61
2023/06/16 01:25:43;;;;;;;22.40;18.92;;;14.80;99.90;;;;;;5017198;28;20045;-61
2023/06/16 01:28:10;;;;;;;34.10;15.23;;;14.70;99.90;;;;;;5018180;28;20045;-61
2023/06/16 01:30:40;;;;;;;17.40;15.60;;;14.70;99.90;;;;;;5051928;28;20073;-61
2023/06/16 01:33:06;;;;;;;20.42;18.13;;;14.70;99.90;;;;;;5051709;28;20473;-60
2023/06/16 01:35:33;;;;;;;19.58;15.88;;;14.70;99.90;;;;;;5034376;28;20037;-61
2023/06/16 01:38:00;;;;;;;25.13;20.05;;;14.70;99.90;;;;;;5033486;28;20068;-61
2023/06/16 01:40:28;;;;;;;28.30;19.27;;;14.70;99.90;;;;;;5052184;28;20045;-61
2023/06/16 01:42:56;;;;;;;17.00;15.20;;;14.70;99.90;;;;;;5052011;28;20055;-61
2023/06/16 01:45:22;;;;;;;18.17;16.27;;;14.70;99.90;;;;;;5051293;28;20041;-60
2023/06/16 01:47:48;;;;;;;17.30;15.55;;;14.60;99.90;;;;;;5034242;28;20049;-61
2023/06/16 01:50:14;;;;;;;38.55;23.20;;;14.50;99.90;;;;;;5052945;28;20037;-61
2023/06/16 01:52:40;;;;;;;20.45;18.05;;;14.50;99.90;;;;;;5033125;28;20478;-61
2023/06/16 01:55:07;;;;;;;22.35;16.30;;;14.50;99.90;;;;;;5052121;28;20059;-61
2023/06/16 01:57:34;;;;;;;26.05;22.08;;;14.50;99.90;;;;;;5051820;28;20040;-61
2023/06/16 02:00:07;;;;;;;19.25;17.25;;;14.50;99.90;;;;;;5016724;28;20049;-60
2023/06/16 02:02:35;;;;;;;19.00;17.00;;;14.50;99.90;;;;;;5034281;28;20060;-61
2023/06/16 02:05:03;;;;;;;29.92;20.92;;;14.50;99.90;;;;;;5033941;28;20044;-61
2023/06/16 02:07:37;;;;;;;19.55;17.50;;;14.40;99.90;;;;;;5051211;28;20045;-61
2023/06/16 02:10:04;;;;;;;20.37;17.43;;;14.40;99.90;;;;;;5051566;28;20505;-61
2023/06/16 02:12:33;;;;;;;18.50;16.60;;;14.40;99.90;;;;;;5016962;28;20296;-61
2023/06/16 02:15:00;;;;;;;19.13;17.05;;;14.40;99.90;;;;;;5033177;28;20599;-61
2023/06/16 02:17:26;;;;;;;18.20;15.40;;;14.30;99.90;;;;;;5051638;28;20064;-61
2023/06/16 02:19:54;;;;;;;20.08;16.08;;;14.30;99.90;;;;;;5034054;28;20398;-61
2023/06/16 02:22:20;;;;;;;18.27;16.13;;;14.30;99.90;;;;;;5033367;28;20433;-60
2023/06/16 02:24:47;;;;;;;20.42;17.77;;;14.30;99.90;;;;;;5064937;28;20114;-61
2023/06/16 02:27:13;;;;;;;18.88;16.02;;;14.20;99.90;;;;;;5052859;28;20040;-61
2023/06/16 02:29:40;;;;;;;33.42;19.67;;;14.10;99.90;;;;;;5075293;28;20115;-64
2023/06/16 02:32:06;;;;;;;20.92;18.50;;;14.10;99.90;;;;;;5058196;28;20041;-61
2023/06/16 02:34:32;;;;;;;25.73;19.08;;;14.10;99.90;;;;;;5056769;28;20055;-61
2023/06/16 02:36:58;;;;;;;29.10;20.23;;;14.10;99.90;;;;;;5075651;28;20075;-61
2023/06/16 02:39:24;;;;;;;19.52;17.08;;;14.10;99.90;;;;;;5057813;28;20055;-61
2023/06/16 02:41:50;;;;;;;19.55;17.35;;;14.10;99.90;;;;;;5074593;28;20029;-61
2023/06/16 02:44:16;;;;;;;20.70;16.60;;;14.10;99.90;;;;;;5040410;28;20044;-60
2023/06/16 02:46:41;;;;;;;18.73;15.18;;;14.10;99.90;;;;;;5075189;28;20075;-61
2023/06/16 02:49:07;;;;;;;21.25;16.52;;;14.00;99.90;;;;;;5074811;28;20029;-61
2023/06/16 02:51:34;;;;;;;60.90;19.52;;;14.00;99.90;;;;;;5057428;28;20052;-60
2023/06/16 02:54:00;;;;;;;19.50;17.42;;;13.90;99.90;;;;;;5075239;28;20117;-61
2023/06/16 02:56:28;;;;;;;19.23;17.20;;;13.80;99.90;;;;;;5074310;28;20079;-61
2023/06/16 02:58:55;;;;;;;18.95;16.20;;;13.80;99.90;;;;;;5040678;28;20036;-60
2023/06/16 03:01:24;;;;;;;22.13;19.75;;;13.80;99.90;;;;;;5057050;28;20044;-61
2023/06/16 03:03:52;;;;;;;22.55;17.08;;;13.80;99.90;;;;;;5056393;28;20040;-61
2023/06/16 03:06:19;;;;;;;18.55;16.55;;;13.70;99.90;;;;;;5074767;28;20082;-61
2023/06/16 03:08:45;;;;;;;18.85;16.25;;;13.70;99.90;;;;;;5056740;28;20041;-61
2023/06/16 03:11:11;;;;;;;23.88;20.65;;;13.70;99.90;;;;;;5056478;28;20041;-60
2023/06/16 03:13:37;;;;;;;22.90;20.50;;;13.70;99.90;;;;;;5056555;28;20140;-61
2023/06/16 03:16:03;;;;;;;22.30;19.95;;;13.60;99.90;;;;;;5057005;28;20095;-61
2023/06/16 03:18:29;;;;;;;24.38;19.65;;;13.60;99.90;;;;;;5074102;28;20493;-60
2023/06/16 03:20:54;;;;;;;21.13;18.40;;;13.60;99.90;;;;;;5074632;28;20086;-60
2023/06/16 03:23:20;;;;;;;26.80;22.10;;;13.60;99.90;;;;;;5074144;28;20044;-61
2023/06/16 03:25:46;;;;;;;23.95;20.90;;;13.60;99.90;;;;;;5053959;28;20045;-61
2023/06/16 03:28:13;;;;;;;28.17;20.63;;;13.60;99.90;;;;;;5036932;28;20482;-61
2023/06/16 03:30:38;;;;;;;22.00;19.67;;;13.60;99.90;;;;;;5053791;28;20048;-61
2023/06/16 03:33:05;;;;;;;23.77;21.30;;;13.60;99.90;;;;;;5054653;28;20049;-61
2023/06/16 03:35:30;;;;;;;21.50;19.20;;;13.60;99.90;;;;;;5036857;28;20129;-60
2023/06/16 03:37:56;;;;;;;21.30;19.20;;;13.70;99.90;;;;;;5053538;28;20516;-61
2023/06/16 03:40:22;;;;;;;24.75;19.80;;;13.60;99.90;;;;;;5035583;28;20382;-61
2023/06/16 03:42:47;;;;;;;19.75;17.85;;;13.70;99.90;;;;;;5036504;28;20045;-61
2023/06/16 03:45:13;;;;;;;22.48;18.90;;;13.80;99.90;;;;;;5019404;28;20071;-60
2023/06/16 03:47:40;;;;;;;24.73;18.05;;;13.80;99.90;;;;;;5031052;28;20446;-60
2023/06/16 03:50:05;;;;;;;21.88;19.20;;;13.90;99.90;;;;;;5056264;28;20052;-61
2023/06/16 03:52:31;;;;;;;23.20;18.30;;;13.90;99.90;;;;;;5073326;28;20374;-61
2023/06/16 03:54:57;;;;;;;19.77;17.73;;;14.00;99.90;;;;;;5073901;28;20347;-61
2023/06/16 03:57:22;;;;;;;20.13;17.55;;;14.00;99.90;;;;;;5073904;28;20040;-61
2023/06/16 03:59:48;;;;;;;21.90;19.42;;;14.00;99.90;;;;;;5073144;28;20123;-61
2023/06/16 04:02:14;;;;;;;17.48;15.02;;;14.00;99.90;;;;;;5073842;28;20044;-61
2023/06/16 04:04:42;;;;;;;22.67;16.10;;;14.00;99.90;;;;;;5074061;28;20114;-61
2023/06/16 04:07:09;;;;;;;19.58;16.63;;;14.00;99.90;;;;;;5054906;28;20366;-61
2023/06/16 04:09:34;;;;;;;17.17;15.50;;;14.00;99.90;;;;;;5053507;28;20120;-61
2023/06/16 04:12:00;;;;;;;17.52;15.35;;;14.00;99.90;;;;;;5053532;28;20532;-61
2023/06/16 04:14:26;;;;;;;15.88;14.18;;;14.00;99.90;;;;;;5034966;28;20405;-61
2023/06/16 04:16:51;;;;;;;15.45;13.85;;;14.10;99.90;;;;;;5035924;28;20122;-61
2023/06/16 04:19:20;;;;;;;16.25;14.55;;;14.10;99.90;;;;;;5035805;28;20040;-61
2023/06/16 04:21:46;;;;;;;17.10;15.30;;;14.20;99.90;;;;;;5052771;28;20383;-61
2023/06/16 04:24:12;;;;;;;17.15;15.38;;;14.20;99.90;;;;;;5060695;28;20048;-60
2023/06/16 04:26:41;;;;;;;17.95;16.05;;;14.20;99.90;;;;;;5073212;28;20051;-61
2023/06/16 04:29:08;;;;;;;20.23;18.15;;;14.20;99.90;;;;;;5073449;28;20556;-60
2023/06/16 04:31:35;;;;;;;21.73;18.73;;;14.30;99.90;;;;;;5055703;28;20048;-61
2023/06/16 04:34:04;;;;;;;20.20;17.92;;;14.40;99.90;;;;;;5072723;28;20055;-61
2023/06/16 04:36:30;;;;;;;21.65;18.70;;;14.40;99.90;;;;;;5073092;28;20044;-61
2023/06/16 04:38:58;;;;;;;22.38;19.95;;;14.50;99.90;;;;;;5055310;28;20045;-61
2023/06/16 04:41:23;;;;;;;22.38;20.05;;;14.60;99.90;;;;;;5072241;28;20449;-61
2023/06/16 04:43:49;;;;;;;17.92;16.02;;;14.60;99.90;;;;;;5073360;28;20129;-61
2023/06/16 04:46:15;;;;;;;20.70;18.63;;;14.70;99.90;;;;;;5055019;28;20389;-61
2023/06/16 04:48:41;;;;;;;31.63;20.05;;;14.80;99.90;;;;;;5034293;28;20044;-61
2023/06/16 04:51:07;;;;;;;21.83;17.88;;;14.90;99.90;;;;;;5053038;28;20508;-60
2023/06/16 04:53:32;;;;;;;26.50;20.95;;;14.90;99.90;;;;;;5034888;28;20120;-61
2023/06/16 04:55:58;;;;;;;24.45;21.92;;;14.90;99.90;;;;;;5041923;28;20080;-61
2023/06/16 04:58:24;;;;;;;33.33;23.35;;;15.00;99.90;;;;;;5052926;28;20041;-61
2023/06/16 05:00:50;;;;;;;36.03;27.45;;;15.10;99.90;;;;;;5052808;28;20040;-61
2023/06/16 05:03:16;;;;;;;31.30;25.90;;;15.20;99.90;;;;;;5034063;28;20545;-61
2023/06/16 05:05:42;;;;;;;81.95;28.50;;;15.40;99.90;;;;;;5034771;28;20567;-61
2023/06/16 05:08:08;;;;;;;31.13;25.55;;;15.50;99.90;;;;;;5045579;28;20040;-61
2023/06/16 05:10:33;;;;;;;28.50;22.95;;;15.60;99.90;;;;;;5053786;28;20115;-61
2023/06/16 05:13:07;;;;;;;29.73;25.42;;;15.70;99.90;;;;;;5054592;28;20098;-61
2023/06/16 05:15:33;;;;;;;28.43;25.57;;;15.90;99.90;;;;;;5038206;28;20052;-61
2023/06/16 05:17:59;;;;;;;24.45;21.80;;;15.90;99.90;;;;;;5053753;28;20682;-60
2023/06/16 05:20:24;;;;;;;79.47;28.08;;;16.10;99.90;;;;;;5054509;28;20076;-60
2023/06/16 05:22:50;;;;;;;29.88;24.40;;;16.20;99.90;;;;;;5072322;28;20033;-61
2023/06/16 05:25:15;;;;;;;39.33;24.67;;;16.30;99.90;;;;;;5037198;28;20396;-61
2023/06/16 05:27:41;;;;;;;27.60;24.17;;;16.40;99.90;;;;;;5072503;28;20429;-61
2023/06/16 05:30:07;;;;;;;23.55;20.15;;;16.50;99.90;;;;;;5071783;28;20405;-61
2023/06/16 05:32:33;;;;;;;21.83;19.50;;;16.60;99.90;;;;;;5062763;28;20056;-61
2023/06/16 05:34:59;;;;;;;74.82;28.70;;;16.80;99.90;;;;;;5052042;28;20029;-60
2023/06/16 05:37:24;;;;;;;38.10;22.83;;;16.90;99.90;;;;;;5051381;28;20083;-61
2023/06/16 05:39:51;;;;;;;55.58;26.33;;;17.00;99.90;;;;;;5034543;28;20044;-61
2023/06/16 05:42:17;;;;;;;23.00;19.50;;;17.10;99.90;;;;;;5034657;28;20048;-61
2023/06/16 05:44:43;;;;;;;21.67;18.48;;;17.20;99.90;;;;;;5051402;28;20037;-61
2023/06/16 05:47:10;;;;;;;19.58;17.52;;;17.30;99.90;;;;;;5034743;28;20055;-61
2023/06/16 05:49:36;;;;;;;56.05;21.63;;;17.40;99.90;;;;;;5034014;28;20048;-60
2023/06/16 05:52:03;;;;;;;34.80;18.00;;;17.60;99.90;;;;;;5033614;28;20037;-61
2023/06/16 05:54:29;;;;;;;20.00;17.95;;;17.70;99.90;;;;;;5034146;28;20045;-61
2023/06/16 05:56:58;;;;;;;21.95;17.30;;;17.80;99.90;;;;;;5052084;28;20371;-61
2023/06/16 05:59:25;;;;;;;19.58;16.35;;;17.90;99.90;;;;;;5037040;28;20052;-61
2023/06/16 06:01:51;;;;;;;18.38;16.48;;;18.00;99.90;;;;;;5051795;28;20048;-61
2023/06/16 06:04:26;;;;;;;18.55;15.80;;;18.00;99.90;;;;;;5059184;28;20552;-61
2023/06/16 06:06:51;;;;;;;18.42;14.88;;;18.20;99.90;;;;;;5053124;28;20053;-61
2023/06/16 06:09:17;;;;;;;20.05;16.23;;;18.30;99.90;;;;;;5059561;28;20118;-61
2023/06/16 06:11:42;;;;;;;16.75;15.05;;;18.30;99.90;;;;;;5050640;28;20375;-61
2023/06/16 06:14:08;;;;;;;19.60;16.52;;;18.40;99.90;;;;;;5047394;28;20135;-60
2023/06/16 06:16:34;;;;;;;21.40;16.27;;;18.50;99.90;;;;;;5054608;28;20524;-62
2023/06/16 06:19:00;;;;;;;16.30;14.63;;;18.50;99.90;;;;;;5017416;28;20056;-62
2023/06/16 06:21:25;;;;;;;17.42;15.45;;;18.70;99.90;;;;;;5052197;28;20375;-62
2023/06/16 06:23:51;;;;;;;16.73;14.68;;;18.70;99.90;;;;;;5052210;28;20155;-61
2023/06/16 06:26:17;;;;;;;34.25;15.77;;;18.80;99.90;;;;;;5033040;28;20055;-61
2023/06/16 06:28:43;;;;;;;16.38;13.38;;;18.90;99.90;;;;;;5051698;28;20032;-62
2023/06/16 06:31:09;;;;;;;13.25;11.90;;;19.00;99.90;;;;;;5058637;28;20052;-61
2023/06/16 06:33:34;;;;;;;17.58;13.50;;;19.10;99.90;;;;;;5048661;28;20696;-62
2023/06/16 06:36:00;;;;;;;15.65;13.70;;;19.20;99.90;;;;;;5031564;28;20036;-62
2023/06/16 06:38:26;;;;;;;20.73;15.68;;;19.20;99.90;;;;;;5032296;28;20041;-62
2023/06/16 06:40:52;;;;;;;11.75;10.27;;;19.20;99.90;;;;;;5030584;28;20052;-62
2023/06/16 06:43:18;;;;;;;11.60;9.52;;;19.20;99.90;;;;;;5030902;28;20123;-62
2023/06/16 06:45:45;;;;;;;13.25;10.55;;;19.20;99.90;;;;;;5031086;28;20095;-62
2023/06/16 06:48:11;;;;;;;11.80;9.98;;;19.30;99.90;;;;;;5029665;28;20118;-61
2023/06/16 06:50:36;;;;;;;11.55;9.82;;;19.30;99.90;;;;;;5034137;28;20044;-62
2023/06/16 06:53:02;;;;;;;13.55;10.27;;;19.30;99.90;;;;;;5063903;28;20040;-62
2023/06/16 06:55:28;;;;;;;12.95;10.48;;;19.40;99.90;;;;;;5060132;28;20025;-61
2023/06/16 06:57:54;;;;;;;16.30;8.70;;;19.40;99.90;;;;;;5083494;28;20044;-61
2023/06/16 07:00:19;;;;;;;11.18;8.77;;;19.50;99.90;;;;;;5052475;28;20456;-61
2023/06/16 07:02:45;;;;;;;10.30;8.57;;;19.60;99.90;;;;;;5068527;28;20067;-61
2023/06/16 07:05:11;;;;;;;11.80;8.40;;;19.70;99.90;;;;;;5068985;28;20041;-62
2023/06/16 07:07:37;;;;;;;11.57;8.10;;;19.80;99.90;;;;;;5068436;28;20511;-61
2023/06/16 07:10:03;;;;;;;11.15;8.48;;;19.80;99.90;;;;;;5048921;28;20052;-61
2023/06/16 07:12:29;;;;;;;11.15;8.40;;;19.90;99.90;;;;;;5039199;28;20705;-61
2023/06/16 07:14:55;;;;;;;10.10;8.05;;;19.90;99.90;;;;;;5037682;28;20048;-62
2023/06/16 07:17:20;;;;;;;10.10;8.73;;;20.00;99.90;;;;;;5069507;28;20101;-62
2023/06/16 07:19:46;;;;;;;11.88;9.85;;;20.10;99.90;;;;;;5053793;28;20052;-61
2023/06/16 07:22:12;;;;;;;13.73;10.10;;;20.20;99.90;;;;;;5072481;28;20048;-61
2023/06/16 07:24:38;;;;;;;11.07;8.38;;;20.20;99.90;;;;;;5071637;28;20044;-61
2023/06/16 07:27:04;;;;;;;9.50;7.43;;;20.20;99.90;;;;;;5052224;28;20044;-61
2023/06/16 07:29:30;;;;;;;11.68;7.10;;;20.30;99.90;;;;;;5060082;28;20445;-62
2023/06/16 07:31:55;;;;;;;11.65;6.63;;;20.20;99.90;;;;;;5030735;28;20132;-62
2023/06/16 07:34:21;;;;;;;7.18;5.25;;;20.30;99.90;;;;;;5054105;28;20124;-62
2023/06/16 07:36:47;;;;;;;9.85;4.30;;;20.40;99.90;;;;;;5071212;28;20048;-62
2023/06/16 07:39:12;;;;;;;7.90;5.05;;;20.50;99.90;;;;;;5071605;28;20071;-62
2023/06/16 07:41:38;;;;;;;7.72;4.70;;;20.60;99.90;;;;;;5072016;28;20036;-61
2023/06/16 07:44:05;;;;;;;8.77;5.20;;;20.50;99.40;;;;;;5070578;28;20044;-62
2023/06/16 07:46:34;;;;;;;6.53;4.25;;;20.60;99.90;;;;;;5051949;28;20043;-62
2023/06/16 07:49:00;;;;;;;8.45;4.82;;;20.50;98.30;;;;;;5047738;28;20041;-63
2023/06/16 07:51:26;;;;;;;8.32;4.03;;;20.50;98.10;;;;;;5069578;28;20075;-62
2023/06/16 07:53:52;;;;;;;6.55;3.83;;;20.60;98.10;;;;;;5053096;28;20052;-62
2023/06/16 07:56:19;;;;;;;9.10;4.15;;;20.70;97.50;;;;;;5052320;28;20036;-62
2023/06/16 07:58:45;;;;;;;6.47;3.15;;;20.80;96.20;;;;;;5070304;28;20075;-63
2023/06/16 08:01:11;;;;;;;8.60;3.97;;;20.90;95.60;;;;;;5076106;28;20043;-61
2023/06/16 08:03:37;;;;;;;6.03;3.30;;;20.90;93.40;;;;;;5063605;28;20658;-61
2023/06/16 08:06:05;;;;;;;9.85;4.25;;;20.80;92.20;;;;;;5069506;28;20115;-62
2023/06/16 08:08:35;;;;;;;8.20;3.92;;;20.90;92.50;;;;;;5069356;28;20048;-62
2023/06/16 08:11:02;;;;;;;6.47;3.70;;;21.00;93.20;;;;;;5063177;28;20091;-62
2023/06/16 08:13:28;;;;;;;7.38;3.42;;;21.20;92.50;;;;;;5036084;28;20137;-63
2023/06/16 08:15:54;;;;;;;8.15;4.03;;;21.20;91.00;;;;;;5043678;28;20102;-62
2023/06/16 08:18:20;;;;;;;5.88;3.42;;;21.20;90.10;;;;;;5053561;28;20036;-68
2023/06/16 08:20:47;;;;;;;6.43;3.55;;;21.20;90.40;;;;;;5035331;28;20044;-67
2023/06/16 08:23:14;;;;;;;5.43;3.17;;;21.20;88.90;;;;;;5052268;28;20052;-68
2023/06/16 08:25:40;;;;;;;5.78;3.17;;;21.10;84.50;;;;;;5053200;28;20128;-68
2023/06/16 08:28:07;;;;;;;5.63;3.15;;;21.10;85.70;;;;;;5051806;28;20434;-69
2023/06/16 08:30:36;;;;;;;6.18;2.65;;;21.00;82.80;;;;;;5048356;28;20053;-69
2023/06/16 08:33:04;;;;;;;6.35;3.20;;;21.00;81.50;;;;;;5032934;28;20039;-69
2023/06/16 08:35:30;;;;;;;5.35;2.75;;;21.00;80.50;;;;;;5016085;28;20427;-69
2023/06/16 08:37:56;;;;;;;4.88;2.50;;;21.10;82.90;;;;;;5032327;28;20037;-71
2023/06/16 08:40:22;;;;;;;5.57;2.88;;;21.20;82.40;;;;;;5037967;28;20371;-71
2023/06/16 08:42:50;;;;;;;5.63;3.22;;;21.40;82.60;;;;;;5052342;28;20503;-68
2023/06/16 08:45:19;;;;;;;5.55;2.78;;;21.40;81.50;;;;;;5052494;28;20049;-68
2023/06/16 08:47:45;;;;;;;6.05;4.00;;;21.40;82.00;;;;;;5041063;28;20159;-68
2023/06/16 08:50:13;;;;;;;5.85;3.20;;;21.40;79.90;;;;;;5041230;28;20124;-69
2023/06/16 08:52:40;;;;;;;7.60;2.90;;;21.40;78.20;;;;;;5038796;28;20037;-67
2023/06/16 08:55:13;;;;;;;5.32;2.45;;;21.30;77.10;;;;;;5030825;28;20034;-68
2023/06/16 08:57:47;;;;;;;5.97;2.80;;;21.40;77.70;;;;;;5023209;28;20041;-69
2023/06/16 09:00:17;;;;;;;4.28;2.30;;;21.50;77.30;;;;;;5031310;28;20049;-68
2023/06/16 09:02:48;;;;;;;5.75;3.28;;;21.60;77.20;;;;;;5041274;28;20041;-68
2023/06/16 09:05:18;;;;;;;4.85;2.50;;;21.70;75.30;;;;;;5051031;28;20130;-68
2023/06/16 09:07:44;;;;;;;12.73;2.90;;;21.60;73.30;;;;;;5051510;28;20396;-68
2023/06/16 09:10:09;;;;;;;5.20;2.70;;;21.60;73.40;;;;;;5050826;28;20128;-69
2023/06/16 09:12:35;;;;;;;4.68;2.45;;;21.60;71.60;;;;;;5050669;28;20049;-72
2023/06/16 09:15:11;;;;;;;6.55;2.95;;;21.60;71.50;;;;;;5050557;28;20505;-69
2023/06/16 09:17:39;;;;;;;5.28;2.88;;;21.70;71.80;;;;;;5051956;28;20037;-75
2023/06/16 09:20:12;;;;;;;6.43;3.17;;;21.70;71.50;;;;;;5033276;28;20045;-75
2023/06/16 09:22:39;;;;;;;11.25;4.03;;;21.80;72.10;;;;;;5031297;28;20097;-74
2023/06/16 09:25:05;;;;;;;5.22;2.72;;;21.90;70.90;;;;;;5047565;28;20118;-73
2023/06/16 09:27:49;;;;;;;5.63;2.78;;;22.00;69.80;;;;;;5032256;28;20479;-71
2023/06/16 09:30:18;;;;;;;6.55;3.45;;;22.10;70.00;;;;;;5044457;28;20041;-71
2023/06/16 09:32:45;;;;;;;6.25;3.88;;;22.20;69.20;;;;;;5043618;28;20053;-69
2023/06/16 09:35:22;;;;;;;6.45;3.83;;;22.20;68.00;;;;;;5052511;28;20440;-69
2023/06/16 09:37:50;;;;;;;6.88;3.97;;;22.40;68.60;;;;;;5050975;28;20032;-69
2023/06/16 09:40:18;;;;;;;9.27;5.03;;;22.40;65.40;;;;;;5052143;28;20095;-68
2023/06/16 09:42:45;;;;;;;9.65;4.55;;;22.30;65.40;;;;;;5050650;28;20498;-68
2023/06/16 09:45:19;;;;;;;7.60;3.90;;;22.30;65.30;;;;;;5051727;28;20041;-68
2023/06/16 09:47:47;;;;;;;8.00;5.28;;;22.40;64.20;;;;;;5051994;28;20041;-68
2023/06/16 09:50:17;;;;;;;9.73;5.00;;;22.40;62.50;;;;;;5051351;28;20398;-69
2023/06/16 09:52:44;;;;;;;8.65;5.32;;;22.20;62.10;;;;;;5052097;28;20112;-68
2023/06/16 09:55:11;;;;;;;7.15;4.68;;;22.20;63.30;;;;;;5052305;28;20086;-68
2023/06/16 09:57:39;;;;;;;8.38;5.32;;;22.30;62.30;;;;;;5049825;28;20045;-68
2023/06/16 10:00:13;;;;;;;6.82;3.50;;;22.20;62.40;;;;;;5052083;28;20613;-68
2023/06/16 10:02:40;;;;;;;5.80;2.80;;;22.20;61.80;;;;;;5051065;28;20037;-68
2023/06/16 10:05:09;;;;;;;5.65;4.18;;;22.20;63.00;;;;;;5050063;28;20554;-68
2023/06/16 10:07:38;;;;;;;6.65;4.20;;;22.40;63.20;;;;;;5051674;28;20490;-68
2023/06/16 10:10:08;;;;;;;7.30;3.80;;;22.50;63.80;;;;;;5050606;28;20048;-68
2023/06/16 10:12:36;;;;;;;6.25;3.28;;;22.50;61.00;;;;;;5049389;28;20052;-68
2023/06/16 10:15:09;;;;;;;6.47;3.28;;;22.40;61.60;;;;;;5033952;28;20037;-68
2023/06/16 10:17:37;;;;;;;6.13;2.90;;;22.40;60.80;;;;;;5050469;28;20524;-68
2023/06/16 10:20:08;;;;;;;6.05;2.95;;;22.40;60.70;;;;;;5051005;28;20041;-69
2023/06/16 10:22:34;;;;;;;8.88;3.15;;;22.50;61.20;;;;;;5051767;28;20511;-68
2023/06/16 10:25:02;;;;;;;8.55;2.78;;;22.60;60.80;;;;;;5050373;28;20084;-68
2023/06/16 10:27:27;;;;;;;6.07;2.90;;;22.60;60.00;;;;;;5051039;28;20056;-68
2023/06/16 10:29:54;;;;;;;6.65;2.80;;;22.70;60.30;;;;;;5050286;28;20041;-69
2023/06/16 10:32:21;;;;;;;7.88;2.42;;;22.70;59.30;;;;;;5051588;28;20048;-69
2023/06/16 10:34:51;;;;;;;6.53;2.80;;;22.80;59.10;;;;;;5051388;28;20371;-69
2023/06/16 10:37:21;;;;;;;5.82;2.65;;;22.80;56.40;;;;;;5051475;28;20048;-68
2023/06/16 10:39:46;;;;;;;6.85;3.17;;;22.80;56.80;;;;;;5032877;28;20510;-68
2023/06/16 10:42:13;;;;;;;6.07;2.47;;;22.80;56.40;;;;;;5050666;28;20063;-68
2023/06/16 10:44:39;;;;;;;5.47;2.28;;;22.80;56.20;;;;;;5051953;28;20041;-68
2023/06/16 10:47:08;;;;;;;5.25;2.25;;;22.80;54.50;;;;;;5049640;28;20048;-68
2023/06/16 10:50:00;;;;;;;4.80;2.15;;;22.70;54.30;;;;;;5053153;28;20055;-68
2023/06/16 10:52:28;;;;;;;5.88;2.65;;;22.70;54.70;;;;;;5037423;28;20044;-68
2023/06/16 10:54:58;;;;;;;13.45;2.90;;;22.80;53.20;;;;;;5053201;28;20132;-68
2023/06/16 10:57:25;;;;;;;8.77;3.00;;;22.90;54.70;;;;;;5053988;28;20056;-68
2023/06/16 10:59:55;;;;;;;9.00;2.45;;;23.00;55.40;;;;;;5054072;28;20387;-69
2023/06/16 11:02:23;;;;;;;3.90;2.28;;;23.00;54.90;;;;;;5053023;28;20072;-69
2023/06/16 11:05:07;;;;;;;4.95;2.70;;;23.00;56.60;;;;;;5053679;28;20041;-69
2023/06/16 11:07:46;;;;;;;5.97;2.47;;;23.00;56.90;;;;;;5053098;28;20541;-69
2023/06/16 11:10:20;;;;;;;10.82;3.65;;;23.00;58.80;;;;;;5054069;28;20116;-68
2023/06/16 11:12:46;;;;;;;;;;;23.20;58.70;;;;;;5065053;28;20490;-68
2023/06/16 11:15:13;;;;;;;5.97;2.78;;;23.20;59.20;;;;;;5056351;28;19927;-68
2023/06/16 11:17:40;;;;;;;5.95;2.50;;;23.20;58.90;;;;;;5075228;28;20037;-68
2023/06/16 11:20:06;;;;;;;6.18;2.22;;;23.20;59.30;;;;;;5057098;28;20401;-67
2023/06/16 11:22:36;;;;;;;6.53;2.45;;;23.30;59.90;;;;;;5073850;28;20501;-66
2023/06/16 11:25:03;;;;;;;6.38;2.58;;;23.30;58.60;;;;;;5057002;28;20044;-66
2023/06/16 11:27:30;;;;;;;5.03;2.80;;;23.30;57.60;;;;;;5074749;28;20048;-65
2023/06/16 11:29:57;;;;;;;8.02;2.70;;;23.30;57.80;;;;;;5073592;28;20485;-66
2023/06/16 11:32:30;;;;;;;5.07;2.50;;;23.50;58.00;;;;;;5056716;28;20044;-66
2023/06/16 11:34:57;;;;;;;6.50;2.53;;;23.70;57.80;;;;;;5074644;28;20060;-65
2023/06/16 11:37:41;;;;;;;6.32;2.53;;;23.80;57.30;;;;;;5055566;28;20478;-65
2023/06/16 11:40:07;;;;;;;;;;;23.90;57.70;;;;;;5057430;28;20148;-67
2023/06/16 11:42:33;;;;;;;5.60;2.80;;;23.80;57.00;;;;;;5074528;28;19923;-67
2023/06/16 11:44:59;;;;;;;6.93;3.05;;;23.90;57.10;;;;;;5039277;28;20085;-71
2023/06/16 11:47:25;;;;;;;5.60;2.72;;;23.80;55.60;;;;;;5074423;28;20512;-71
2023/06/16 11:49:51;;;;;;;5.30;2.90;;;23.60;56.20;;;;;;5055476;28;20044;-69
2023/06/16 11:52:18;;;;;;;5.03;2.83;;;23.60;57.50;;;;;;5074089;28;20043;-68
2023/06/16 11:54:44;;;;;;;5.88;2.85;;;23.70;58.00;;;;;;5074038;28;20033;-68
2023/06/16 11:57:10;;;;;;;6.32;2.67;;;23.70;57.00;;;;;;5073667;28;20116;-68
2023/06/16 11:59:37;;;;;;;6.65;2.92;;;23.70;56.40;;;;;;5056159;28;20048;-71
2023/06/16 12:02:04;;;;;;;5.43;2.88;;;23.70;57.00;;;;;;5073423;28;20036;-67
2023/06/16 12:04:34;;;;;;;6.30;3.47;;;23.70;57.60;;;;;;5055106;28;20558;-70
2023/06/16 12:07:01;;;;;;;7.85;2.95;;;23.80;58.10;;;;;;5073792;28;20051;-69
2023/06/16 12:09:39;;;;;;;6.25;3.17;;;23.90;58.20;;;;;;5039202;28;20052;-68
2023/06/16 12:12:07;;;;;;;7.03;3.15;;;23.90;57.10;;;;;;5055284;28;20052;-69
2023/06/16 12:14:36;;;;;;;4.95;2.47;;;23.80;57.00;;;;;;5055923;28;20127;-68
2023/06/16 12:17:03;;;;;;;6.68;2.78;;;23.80;57.40;;;;;;5039236;28;20033;-69
2023/06/16 12:19:28;;;;;;;7.10;3.13;;;24.00;59.00;;;;;;5054853;28;20055;-67
2023/06/16 12:22:02;;;;;;;4.75;2.50;;;24.00;57.20;;;;;;5039078;28;20040;-68
2023/06/16 12:24:28;;;;;;;5.65;2.67;;;24.00;56.80;;;;;;5055887;28;20064;-66
2023/06/16 12:26:55;;;;;;;5.22;2.22;;;23.90;56.10;;;;;;5055022;28;20048;-68
2023/06/16 12:29:25;;;;;;;5.60;2.60;;;23.80;57.70;;;;;;5055560;28;20097;-67
2023/06/16 12:31:55;;;;;;;5.60;2.60;;;23.70;55.00;;;;;;5039203;28;20048;-66
2023/06/16 12:34:30;;;;;;;12.30;3.65;;;23.70;55.80;;;;;;5072850;28;20052;-66
2023/06/16 12:37:01;;;;;;;5.38;2.55;;;23.70;56.10;;;;;;5055297;28;20119;-66